createdAt,value
2018-12-31T00:01:16.284Z,66.50
2018-12-31T00:04:10.688Z,66.50
2018-12-31T00:07:03.157Z,66.50
2018-12-31T00:09:55.530Z,66.50
2018-12-31T00:12:47.977Z,66.40
2018-12-31T00:15:40.663Z,66.50
2018-12-31T00:18:33.807Z,66.40
2018-12-31T00:21:28.327Z,66.40
2018-12-31T00:24:20.878Z,66.10
2018-12-31T00:27:13.357Z,66.00
2018-12-31T00:30:05.837Z,65.80
2018-12-31T01:37:08.450Z,65.30
2018-12-31T01:40:00.829Z,66.10
2018-12-31T01:42:55.033Z,66.10
2018-12-31T01:45:48.717Z,66.10
2018-12-31T01:48:41.580Z,66.10
2018-12-31T01:51:36.332Z,66.00
2018-12-31T01:54:30.969Z,65.90
2018-12-31T01:57:27.598Z,66.10
2018-12-31T02:00:20.004Z,66.10
2018-12-31T02:03:12.087Z,66.10
2018-12-31T02:06:05.634Z,66.20
2018-12-31T02:08:59.708Z,66.20
2018-12-31T02:11:52.545Z,66.50
2018-12-31T02:14:45.695Z,66.50
2018-12-31T02:17:39.311Z,66.50
2018-12-31T02:20:35.628Z,66.50
2018-12-31T02:23:28.452Z,66.60
2018-12-31T02:26:20.878Z,66.70
2018-12-31T02:29:13.875Z,66.70
2018-12-31T02:32:06.300Z,66.80
2018-12-31T02:34:58.609Z,66.80
2018-12-31T02:37:54.777Z,66.80
2018-12-31T02:40:48.706Z,66.80
2018-12-31T02:43:43.650Z,66.80
2018-12-31T02:46:38.090Z,67.00
2018-12-31T02:49:31.402Z,67.20
2018-12-31T02:52:24.216Z,67.20
2018-12-31T02:55:16.520Z,67.40
2018-12-31T02:58:10.563Z,67.50
2018-12-31T03:01:02.985Z,67.70
2018-12-31T03:03:55.937Z,67.70
2018-12-31T03:06:52.143Z,67.80
2018-12-31T03:09:44.468Z,68.10
2018-12-31T03:12:37.908Z,68.60
2018-12-31T03:15:30.309Z,68.60
2018-12-31T03:18:26.181Z,68.60
2018-12-31T03:21:18.860Z,69.10
2018-12-31T03:24:12.320Z,69.20
2018-12-31T03:27:05.268Z,69.30
2018-12-31T03:29:59.081Z,69.30
2018-12-31T03:32:51.763Z,69.40
2018-12-31T03:35:44.710Z,69.60
2018-12-31T03:38:36.796Z,68.60
2018-12-31T03:41:28.586Z,68.60
2018-12-31T03:44:20.647Z,68.60
2018-12-31T03:47:13.031Z,69.00
2018-12-31T03:50:05.561Z,69.10
2018-12-31T03:53:00.030Z,68.30
2018-12-31T03:55:54.502Z,68.80
2018-12-31T03:58:46.954Z,69.10
2018-12-31T04:01:39.578Z,68.90
2018-12-31T04:04:31.350Z,69.20
2018-12-31T04:07:25.941Z,68.80
2018-12-31T04:10:17.835Z,68.90
2018-12-31T04:13:11.686Z,69.30
2018-12-31T04:16:25.011Z,69.00
2018-12-31T04:19:19.778Z,69.10
2018-12-31T04:22:12.089Z,69.20
2018-12-31T04:25:04.618Z,69.60
2018-12-31T04:27:58.253Z,69.90
2018-12-31T04:30:50.607Z,70.20
2018-12-31T04:33:44.022Z,70.00
2018-12-31T04:36:36.973Z,70.00
2018-12-31T04:39:29.446Z,70.00
2018-12-31T04:42:23.354Z,70.00
2018-12-31T04:45:19.627Z,69.90
2018-12-31T04:48:12.909Z,70.00
2018-12-31T04:51:05.354Z,69.80
2018-12-31T04:53:57.585Z,69.60
2018-12-31T04:56:50.000Z,69.30
2018-12-31T04:59:42.267Z,68.80
2018-12-31T05:02:35.021Z,68.80
2018-12-31T05:05:28.331Z,68.70
2018-12-31T05:08:20.494Z,68.40
2018-12-31T05:11:12.786Z,68.50
2018-12-31T05:14:06.792Z,68.50
2018-12-31T05:16:59.596Z,69.00
2018-12-31T05:20:06.555Z,69.10
2018-12-31T05:22:59.131Z,68.90
2018-12-31T05:25:51.328Z,69.30
2018-12-31T05:28:44.247Z,67.70
2018-12-31T05:31:36.735Z,68.30
2018-12-31T05:34:30.173Z,68.60
2018-12-31T05:37:23.369Z,68.20
2018-12-31T05:40:16.622Z,66.70
2018-12-31T05:43:08.802Z,67.00
2018-12-31T05:46:04.415Z,67.50
2018-12-31T05:48:57.844Z,68.00
2018-12-31T05:51:49.989Z,68.30
2018-12-31T05:54:41.834Z,68.20
2018-12-31T05:57:33.932Z,68.60
2018-12-31T06:00:26.101Z,68.20
2018-12-31T06:03:18.545Z,65.80
2018-12-31T06:06:11.123Z,66.50
2018-12-31T06:09:04.278Z,66.80
2018-12-31T06:11:56.700Z,66.60
2018-12-31T06:14:48.512Z,63.60
2018-12-31T06:17:43.182Z,64.70
2018-12-31T06:20:35.970Z,65.00
2018-12-31T06:23:28.869Z,65.20
2018-12-31T06:26:21.406Z,65.00
2018-12-31T06:29:13.471Z,64.40
2018-12-31T06:32:05.883Z,62.30
2018-12-31T06:34:59.837Z,62.50
2018-12-31T06:37:52.835Z,61.70
2018-12-31T06:40:46.811Z,63.30
2018-12-31T06:43:39.321Z,65.10
2018-12-31T06:46:33.114Z,67.00
2018-12-31T06:49:26.801Z,65.60
2018-12-31T06:52:19.204Z,65.30
2018-12-31T06:55:12.209Z,65.60
2018-12-31T06:58:05.068Z,65.20
2018-12-31T07:01:00.351Z,63.50
2018-12-31T07:03:52.623Z,64.00
2018-12-31T07:06:45.186Z,62.70
2018-12-31T07:09:39.360Z,62.30
2018-12-31T07:12:31.772Z,60.50
2018-12-31T07:15:24.041Z,60.90
2018-12-31T07:18:17.450Z,60.80
2018-12-31T07:21:10.057Z,60.90
2018-12-31T07:24:03.049Z,61.60
2018-12-31T07:26:57.160Z,60.70
2018-12-31T07:29:50.773Z,59.50
2018-12-31T07:32:43.575Z,58.70
2018-12-31T07:35:36.149Z,59.40
2018-12-31T07:38:30.428Z,60.00
2018-12-31T07:41:23.810Z,59.30
2018-12-31T07:44:16.647Z,58.50
2018-12-31T07:47:09.451Z,57.70
2018-12-31T07:50:01.607Z,59.20
2018-12-31T07:52:54.043Z,59.90
2018-12-31T07:55:52.489Z,60.20
2018-12-31T07:58:45.423Z,60.50
2018-12-31T08:01:38.192Z,60.10
2018-12-31T08:04:30.627Z,60.30
2018-12-31T08:07:25.027Z,60.50
2018-12-31T08:10:17.362Z,60.70
2018-12-31T08:13:12.006Z,61.00
2018-12-31T08:16:05.819Z,60.80
2018-12-31T08:18:59.260Z,61.10
2018-12-31T08:21:52.539Z,61.80
2018-12-31T08:24:44.854Z,61.00
2018-12-31T08:27:37.507Z,61.60
2018-12-31T08:30:31.177Z,61.90
2018-12-31T08:33:24.653Z,62.40
2018-12-31T08:36:19.108Z,61.60
2018-12-31T08:39:12.754Z,60.60
2018-12-31T08:42:06.176Z,59.90
2018-12-31T08:44:59.573Z,60.00
2018-12-31T08:47:52.089Z,59.40
2018-12-31T08:50:44.709Z,60.10
2018-12-31T08:53:38.405Z,60.20
2018-12-31T08:56:32.643Z,61.00
2018-12-31T08:59:24.762Z,60.30
2018-12-31T09:02:17.210Z,60.20
2018-12-31T09:05:09.689Z,60.00
2018-12-31T09:08:02.241Z,60.30
2018-12-31T09:10:54.810Z,60.20
2018-12-31T09:13:47.232Z,59.90
2018-12-31T09:16:39.600Z,60.10
2018-12-31T09:19:31.922Z,59.70
2018-12-31T09:22:25.421Z,59.60
2018-12-31T09:25:17.958Z,59.20
2018-12-31T09:28:11.020Z,57.80
2018-12-31T09:31:03.325Z,58.50
2018-12-31T09:33:55.895Z,58.60
2018-12-31T09:36:49.794Z,58.40
2018-12-31T09:39:43.762Z,57.90
2018-12-31T09:42:38.760Z,58.50
2018-12-31T09:45:31.634Z,58.60
2018-12-31T09:48:27.672Z,58.60
2018-12-31T09:51:22.586Z,58.30
2018-12-31T09:54:16.781Z,58.90
2018-12-31T09:57:09.616Z,58.30
2018-12-31T10:00:02.108Z,58.50
2018-12-31T10:02:59.737Z,58.70
2018-12-31T10:05:52.446Z,58.10
2018-12-31T10:08:49.436Z,58.10
2018-12-31T10:11:39.999Z,58.40
2018-12-31T10:14:32.120Z,57.60
2018-12-31T10:17:25.054Z,58.20
2018-12-31T10:20:19.007Z,58.20
2018-12-31T10:23:12.111Z,57.90
2018-12-31T10:26:04.764Z,57.10
2018-12-31T10:28:57.439Z,57.80
2018-12-31T10:31:50.069Z,58.20
2018-12-31T10:34:43.442Z,58.20
2018-12-31T10:37:38.215Z,58.10
2018-12-31T10:40:31.686Z,57.50
2018-12-31T10:43:26.243Z,58.00
2018-12-31T10:46:22.049Z,58.40
2018-12-31T10:49:17.668Z,57.70
2018-12-31T10:52:16.101Z,57.10
2018-12-31T10:55:11.692Z,57.70
2018-12-31T10:58:14.135Z,57.60
2018-12-31T11:01:08.274Z,58.20
2018-12-31T11:04:03.965Z,58.00
2018-12-31T11:06:59.270Z,58.40
2018-12-31T11:09:52.280Z,58.60
2018-12-31T11:12:45.846Z,58.80
2018-12-31T11:15:39.962Z,59.20
2018-12-31T11:18:36.530Z,59.00
2018-12-31T11:21:28.432Z,59.30
2018-12-31T11:24:21.155Z,59.00
2018-12-31T11:32:02.031Z,59.40
2018-12-31T11:34:54.487Z,59.80
2018-12-31T11:37:48.437Z,60.10
2018-12-31T13:18:51.861Z,66.50
2018-12-31T13:21:44.409Z,67.30
2018-12-31T13:24:37.231Z,67.70
2018-12-31T13:27:29.973Z,67.00
2018-12-31T13:30:23.540Z,67.00
2018-12-31T13:33:16.395Z,67.00
2018-12-31T13:36:11.699Z,67.80
2018-12-31T13:39:04.585Z,67.00
2018-12-31T13:42:00.270Z,67.10
2018-12-31T13:44:52.898Z,67.10
2018-12-31T13:47:45.914Z,67.00
2018-12-31T13:50:38.411Z,67.10
2018-12-31T13:53:31.828Z,67.20
2018-12-31T13:56:25.328Z,67.30
2018-12-31T13:59:18.356Z,67.30
2018-12-31T14:02:11.321Z,67.30
2018-12-31T14:05:04.006Z,67.50
2018-12-31T14:07:56.266Z,67.60
2018-12-31T14:10:52.554Z,67.80
2018-12-31T14:13:45.270Z,68.00
2018-12-31T14:16:37.325Z,68.00
2018-12-31T14:19:30.332Z,68.20
2018-12-31T14:22:22.863Z,68.30
2018-12-31T14:25:15.714Z,68.40
2018-12-31T14:28:08.828Z,68.40
2018-12-31T14:31:01.746Z,68.70
2018-12-31T14:33:54.443Z,68.50
2018-12-31T14:36:46.875Z,68.70
2018-12-31T14:39:40.007Z,68.80
2018-12-31T14:42:33.438Z,68.50
2018-12-31T14:45:25.986Z,68.60
2018-12-31T14:48:18.822Z,68.80
2018-12-31T14:51:11.597Z,68.70
2018-12-31T14:54:04.230Z,68.70
2018-12-31T14:56:56.523Z,68.80
2018-12-31T14:59:49.146Z,68.90
2018-12-31T15:02:41.828Z,70.00
2018-12-31T15:05:34.006Z,69.10
2018-12-31T15:08:26.745Z,69.20
2018-12-31T15:11:19.246Z,69.30
2018-12-31T15:14:12.049Z,69.30
2018-12-31T15:17:04.506Z,69.40
2018-12-31T15:19:57.368Z,69.40
2018-12-31T15:22:49.711Z,69.50
2018-12-31T15:25:42.609Z,69.70
2018-12-31T15:28:36.751Z,69.60
2018-12-31T15:31:30.818Z,69.70
2018-12-31T15:34:23.181Z,69.80
2018-12-31T15:37:17.768Z,69.90
2018-12-31T15:40:10.753Z,69.70
2018-12-31T15:43:03.347Z,69.70
2018-12-31T15:45:56.142Z,69.60
2018-12-31T15:48:48.811Z,69.70
2018-12-31T15:51:41.440Z,69.70
2018-12-31T15:54:33.996Z,69.70
2018-12-31T15:57:26.648Z,69.70
2018-12-31T16:00:19.290Z,69.70
2018-12-31T16:03:11.545Z,69.70
2018-12-31T16:06:04.321Z,69.80
2018-12-31T16:08:56.867Z,69.70
2018-12-31T16:11:49.384Z,69.80
2018-12-31T16:14:41.662Z,70.60
2018-12-31T16:17:34.267Z,69.90
2018-12-31T16:20:27.308Z,69.90
2018-12-31T16:23:20.433Z,69.80
2018-12-31T16:26:13.849Z,69.80
2018-12-31T16:29:07.180Z,69.80
2018-12-31T16:31:59.481Z,69.90
2018-12-31T16:34:51.880Z,69.90
2018-12-31T16:37:44.464Z,69.80
2018-12-31T16:40:37.244Z,69.90
2018-12-31T16:43:29.878Z,69.90
2018-12-31T16:46:26.605Z,69.90
2018-12-31T16:49:19.253Z,69.80
2018-12-31T16:52:12.046Z,69.80
2018-12-31T16:55:04.510Z,69.70
2018-12-31T16:57:57.095Z,69.80
2018-12-31T17:00:49.673Z,69.90
2018-12-31T17:03:43.668Z,69.90
2018-12-31T17:06:36.856Z,69.80
2018-12-31T17:09:28.855Z,69.80
2018-12-31T17:12:21.520Z,69.80
2018-12-31T17:15:13.635Z,70.50
2018-12-31T17:18:06.186Z,69.60
2018-12-31T17:20:59.656Z,69.60
2018-12-31T17:23:52.051Z,69.60
2018-12-31T17:26:44.407Z,69.60
2018-12-31T17:29:37.243Z,69.60
2018-12-31T17:32:30.621Z,69.60
2018-12-31T17:35:25.573Z,69.50
2018-12-31T17:38:18.526Z,69.50
2018-12-31T17:41:10.868Z,69.50
2018-12-31T17:44:03.178Z,69.50
2018-12-31T17:46:56.019Z,69.50
2018-12-31T17:49:49.807Z,69.30
2018-12-31T17:52:43.077Z,69.40
2018-12-31T17:55:35.619Z,69.50
2018-12-31T17:58:28.417Z,69.40
2018-12-31T18:01:21.039Z,69.30
2018-12-31T18:04:13.340Z,69.40
2018-12-31T18:07:06.222Z,69.40
2018-12-31T18:09:59.137Z,69.40
2018-12-31T18:12:52.050Z,69.40
2018-12-31T18:15:44.568Z,70.10
2018-12-31T18:18:39.920Z,69.40
2018-12-31T18:21:32.742Z,69.40
2018-12-31T18:24:25.511Z,69.20
2018-12-31T18:27:18.106Z,69.40
2018-12-31T18:30:13.163Z,69.40
2018-12-31T18:33:05.581Z,69.50
2018-12-31T18:35:58.401Z,69.40
2018-12-31T18:38:51.151Z,69.50
2018-12-31T18:41:43.705Z,69.30
2018-12-31T18:44:36.328Z,69.20
2018-12-31T18:47:28.941Z,69.10
2018-12-31T18:50:21.564Z,69.30
2018-12-31T18:53:14.151Z,69.30
2018-12-31T18:56:09.911Z,69.30
2018-12-31T18:59:02.139Z,69.10
2018-12-31T19:01:54.870Z,69.10
2018-12-31T19:04:47.607Z,69.10
2018-12-31T19:07:40.053Z,69.00
2018-12-31T19:10:34.142Z,69.80
2018-12-31T19:13:27.194Z,69.00
2018-12-31T19:16:21.462Z,69.00
2018-12-31T19:19:16.522Z,69.10
2018-12-31T19:22:14.089Z,68.80
2018-12-31T19:25:11.178Z,68.50
2018-12-31T19:28:04.277Z,68.70
2018-12-31T19:30:56.917Z,68.80
2018-12-31T19:33:49.796Z,68.80
2018-12-31T19:36:42.871Z,68.70
2018-12-31T19:39:35.542Z,68.60
2018-12-31T19:42:31.566Z,68.50
2018-12-31T19:45:25.426Z,68.60
2018-12-31T19:48:19.220Z,68.60
2018-12-31T19:51:11.521Z,68.30
2018-12-31T19:54:04.196Z,68.30
2018-12-31T19:56:59.221Z,68.60
2018-12-31T19:59:53.221Z,68.60
2018-12-31T20:02:46.364Z,68.60
2018-12-31T20:05:38.990Z,68.50
2018-12-31T20:08:33.179Z,68.60
2018-12-31T20:11:25.696Z,68.60
2018-12-31T20:14:19.972Z,68.70
2018-12-31T20:17:12.378Z,68.70
2018-12-31T20:20:06.331Z,68.60
2018-12-31T20:22:59.181Z,68.60
2018-12-31T20:25:51.617Z,68.50
2018-12-31T20:28:44.133Z,68.60
2018-12-31T20:31:38.318Z,68.50
2018-12-31T20:34:36.941Z,68.50
2018-12-31T20:37:30.530Z,68.50
2018-12-31T20:40:23.685Z,68.60
2018-12-31T20:43:18.031Z,68.50
2018-12-31T20:46:10.456Z,68.80
2018-12-31T20:49:03.236Z,68.60
2018-12-31T20:51:55.725Z,68.40
2018-12-31T20:54:48.385Z,68.40
2018-12-31T20:57:41.074Z,68.60
2018-12-31T21:00:33.367Z,68.50
2018-12-31T21:03:28.349Z,68.50
2018-12-31T21:06:22.022Z,68.50
2018-12-31T21:09:14.564Z,68.50
2018-12-31T21:12:07.244Z,68.50
2018-12-31T21:15:00.725Z,68.60
2018-12-31T21:17:53.022Z,68.60
2018-12-31T21:20:46.613Z,68.40
2018-12-31T21:23:41.181Z,68.60
2018-12-31T21:26:33.650Z,68.40
2018-12-31T21:29:37.973Z,68.30
2018-12-31T21:32:56.067Z,68.40
2018-12-31T21:35:49.944Z,68.20
2018-12-31T21:38:42.524Z,68.30
2018-12-31T21:41:34.795Z,68.20
2018-12-31T21:44:27.245Z,68.10
2018-12-31T21:47:19.911Z,68.10
2018-12-31T21:50:12.588Z,68.20
2018-12-31T21:53:04.932Z,68.10
2018-12-31T21:55:57.520Z,68.00
2018-12-31T21:58:49.762Z,68.00
2018-12-31T22:01:44.560Z,67.90
2018-12-31T22:04:38.786Z,67.80
2018-12-31T22:07:31.349Z,67.90
2018-12-31T22:10:23.664Z,68.10
2018-12-31T22:13:16.615Z,67.90
2018-12-31T22:16:10.033Z,68.00
2018-12-31T22:19:02.351Z,68.00
2018-12-31T22:21:54.739Z,67.80
2018-12-31T22:24:47.090Z,68.10
2018-12-31T22:27:39.896Z,68.00
2018-12-31T22:30:32.396Z,67.80
2018-12-31T22:33:24.958Z,67.90
2018-12-31T22:36:17.277Z,67.90
2018-12-31T22:39:10.638Z,67.90
2018-12-31T22:42:03.211Z,67.80
2018-12-31T22:44:55.624Z,67.90
2018-12-31T22:47:47.947Z,67.90
2018-12-31T22:50:40.399Z,67.90
2018-12-31T22:53:32.576Z,67.90
2018-12-31T22:56:25.102Z,68.00
2018-12-31T22:59:17.790Z,68.10
2018-12-31T23:02:10.945Z,68.10
2018-12-31T23:05:03.798Z,68.20
2018-12-31T23:07:56.365Z,68.10
2018-12-31T23:10:49.449Z,68.20
2018-12-31T23:13:43.067Z,68.20
2018-12-31T23:16:35.650Z,68.20
2018-12-31T23:19:28.382Z,68.20
2018-12-31T23:22:21.116Z,68.30
2018-12-31T23:25:13.828Z,67.60
2018-12-31T23:28:06.568Z,68.30
2018-12-31T23:30:59.191Z,68.20
2018-12-31T23:33:51.403Z,68.10
2018-12-31T23:36:44.292Z,68.00
2018-12-31T23:39:36.500Z,68.10
2018-12-31T23:42:31.040Z,68.10
2018-12-31T23:45:23.607Z,68.00
2018-12-31T23:48:17.195Z,68.20
2018-12-31T23:51:10.165Z,68.20
2018-12-31T23:54:02.425Z,68.20
2018-12-31T23:56:54.809Z,68.20
2018-12-31T23:59:47.246Z,68.20
